»·PEaware :: N55NT KSAN-KSNA

N55NT :: KSAN-KSNA

FLIGHT INFORMATION

Flight Status: Arrived
Operator: Privately registered:
United States
More flights under this callsign
Pilot: Craig H. (6968)
Aircraft: SOCATA TBM-900
(TBM9)
More flights by this aircraft type
Origin: KSAN San Diego Intl-Lindbergh
United States
Destination: KSNA John Wayne-Orange Co
United States
More flights between these airports :: More routes between these airports
Route: +PEBLE6 SLI
File this flight plan on PilotEdge
Remarks: SANP4
Altitude:
(Current/Filed)
8,000ft
Speed:
(Current/Filed)
210kts
Departed: 06-Nov-19 01:50 PM
Arrived: 06-Nov-19 02:22 PM
Distance/Time
Traveled:
66nm/0:31
Distance/Time
To Go:
Arrived

Flight Plot

Page will automatically refresh every two minutes.


Map Options




Map Legend


Flown Route
Filed Route
Departure Airport
Arrival Airport
Navaid (VOR, NDB)
Fix

Horizontal Profiles

Position Reports

Time Latitude Longitude Heading Altitude Ground
Speed
06-Nov-19 13:30 32.732357 -117.176826 282 21ft 0kts
06-Nov-19 13:31 32.732357 -117.176826 282 21ft 0kts
06-Nov-19 13:32 32.732357 -117.176826 282 21ft 0kts
06-Nov-19 13:33 32.732357 -117.176827 282 21ft 0kts
06-Nov-19 13:34 32.732357 -117.176827 282 21ft 0kts
06-Nov-19 13:35 32.732357 -117.176827 282 21ft 0kts
06-Nov-19 13:36 32.732357 -117.176827 282 21ft 0kts
06-Nov-19 13:37 32.732357 -117.176827 282 21ft 0kts
06-Nov-19 13:38 32.732357 -117.176827 282 21ft 0kts
06-Nov-19 13:39 32.732357 -117.176827 282 21ft 0kts
06-Nov-19 13:40 32.732357 -117.176827 282 21ft 0kts
06-Nov-19 13:41 32.732357 -117.176827 282 21ft 0kts
06-Nov-19 13:42 32.732357 -117.176827 282 21ft 0kts
06-Nov-19 13:43 32.732357 -117.176827 282 21ft 0kts
06-Nov-19 13:44 32.732357 -117.176827 282 21ft 0kts
06-Nov-19 13:45 32.732357 -117.176827 282 21ft 0kts
06-Nov-19 13:46 32.732361 -117.176921 259 20ft 4kts
06-Nov-19 13:47 32.731237 -117.176090 113 20ft 9kts
06-Nov-19 13:48 32.730762 -117.175370 159 21ft 7kts
06-Nov-19 13:49 32.735551 -117.195105 294 649ft 131kts
06-Nov-19 13:50 32.758472 -117.233924 305 3016ft 147kts
06-Nov-19 13:51 32.781898 -117.274416 305 5379ft 154kts
06-Nov-19 13:52 32.806190 -117.316562 306 7901ft 162kts
06-Nov-19 13:53 32.839299 -117.374061 305 8001ft 242kts
06-Nov-19 13:54 32.879031 -117.443242 305 7987ft 259kts
06-Nov-19 13:55 32.935709 -117.494676 330 7967ft 262kts
06-Nov-19 13:56 32.993081 -117.547105 308 7989ft 263kts
06-Nov-19 13:57 33.038044 -117.615800 309 7970ft 264kts
06-Nov-19 13:58 33.083660 -117.685082 308 7974ft 265kts
06-Nov-19 13:59 33.128565 -117.754015 308 7976ft 262kts
06-Nov-19 14:00 33.173212 -117.822699 308 7978ft 261kts
06-Nov-19 14:01 33.238015 -117.856412 343 8013ft 259kts
06-Nov-19 14:02 33.307160 -117.881421 343 8013ft 260kts
06-Nov-19 14:03 33.376618 -117.906582 343 8010ft 261kts
06-Nov-19 14:04 33.446235 -117.931838 343 8007ft 262kts
06-Nov-19 14:05 33.519156 -117.958324 342 7080ft 284kts
06-Nov-19 14:06 33.594894 -117.985914 343 5801ft 284kts
06-Nov-19 14:07 33.668785 -118.012930 342 4987ft 259kts
06-Nov-19 14:08 33.735465 -118.037272 342 5003ft 245kts
06-Nov-19 14:09 33.797199 -118.020037 31 4997ft 239kts
06-Nov-19 14:10 33.853904 -117.978002 31 4991ft 238kts
06-Nov-19 14:11 33.899112 -117.936229 82 4964ft 188kts
06-Nov-19 14:12 33.898179 -117.873530 91 5001ft 191kts
06-Nov-19 14:13 33.896826 -117.810898 91 4463ft 196kts
06-Nov-19 14:14 33.877595 -117.758383 179 3997ft 199kts
06-Nov-19 14:15 33.828534 -117.771867 210 3465ft 187kts
06-Nov-19 14:16 33.785922 -117.798983 207 2365ft 167kts
06-Nov-19 14:17 33.745280 -117.824729 207 1474ft 149kts
06-Nov-19 14:18 33.713756 -117.845118 209 785ft 91kts
06-Nov-19 14:19 33.692471 -117.858290 206 335ft 88kts
06-Nov-19 14:20 33.673995 -117.869914 207 59ft 42kts
06-Nov-19 14:21 33.668048 -117.872039 220 59ft 19kts
06-Nov-19 14:22 33.665943 -117.873072 40 59ft 0kts
06-Nov-19 14:23 33.665943 -117.873072 40 59ft 0kts
06-Nov-19 14:24 33.665943 -117.873072 40 59ft 0kts
06-Nov-19 14:25 33.665943 -117.873072 40 59ft 0kts
06-Nov-19 14:26 33.665943 -117.873072 40 59ft 0kts
06-Nov-19 14:27 33.665943 -117.873072 40 59ft 0kts
06-Nov-19 14:28 33.665943 -117.873072 40 59ft 0kts
06-Nov-19 14:29 33.665943 -117.873072 40 59ft 0kts
06-Nov-19 14:30 33.665943 -117.873072 40 59ft 0kts

Navigation Log

Ident Type
Flight plan parsing failed, navigation log unavailable